APRS Siero [IN73DK], 2 Stunde(n), ED1ZAS [21:10:52, 30s].
ED1ZAS 43.27.52N 005.40.17WIN73DL 0.417km 345°NNW19:00:07ZRD985 438.2250/430.6250 CC1
ED1ZAE 43.27.99N 005.40.54WIN73DL 1.393km 334°NNW19:01:11Z2m Voice 145.5875 -0.600 Mhz(3ED1ZAE-C)
400 M. PICO SAN MARTIN (GIJON) 13.3V,30.0C(2ED1ZAE-3)
EA4ACU 43.29.56N 005.38.92WIN73EL 4.471km 21°NNE19:01:33ZMMDVM MMDVM HS Hat 432.7000/432.7000 CC1(3EA4ACU-1)
EB1GEM 43.30.00N 005.36.07WIN73EM 7.375km 47°NE19:01:26ZWX3in1Plus2.0 U=13.3V,T=??.?C/??.?F(3EB1GEM-3)
EA1DZR 43.31.48N 005.40.00WIN73EM 7.724km N19:01:47ZMMDVM DVMega 431.1000/431.1000 CC1(3EA1DZR-1)
MMDVM MMDVM HS Hat 432.2000/432.2000 CC2(2EA1DZR-2)
MMDVM DV ADER 434.3500/434.3500 CC1(2EA1DZR-4)
EA1FFA 43.31.53N 005.40.64WIN73DM 7.868km 355°N19:01:26ZMMDVM MMDVM HS Hat 438.8000/438.8000 CC1(3EA1FFA-1)
EA1IEJ 43.31.81N 005.40.64WIN73DM 8.384km 355°N19:01:09ZMMDVM DMO 222.3400/222.3400 CC1(3EA1IEJ-11)
MMDVM MMDVM HS Hat 438.8500/438.8500 CC6(2EA1IEJ-1)
EA1IPU 43.26.21N 005.46.62WIN73CK 8.999km 257°WSW19:01:08ZMMDVM MMDVM HS Hat 439.8000/439.8000 CC1(3EA1IPU-1)
EB1EHT 43.32.47N 005.40.40WIN73DM 9.567km 358°N18:41:08Z440 MMDVM Voice 433.55500MHz +0.0000MHz, APRS for DMRGateway(3EB1EHT-D)
EB1TK 43.32.22N 005.42.32WIN73DM 9.588km 342°NNW19:10:15ZWind 074°/008kn, Böen bis 014kn, Temp 18.33c, Regen 0.0mm, letzte 24h 0.0mm, seit 0h 0.0mm, Baro 1023.8h, Hum: 92%(3EB1TK-13)
LEEL 43.32.98N 005.41.71WIN73DN 10.725km 348°NNW19:00:03ZHelipuerto de El Musel: LEAS 031800Z 09004KT CAVOK 18/16 Q1020 NOSIG=
EA1FLQ 43.22.00N 005.36.35WIN73EI 11.057km 153°SSE19:01:33ZMMDVM DVMega 430.9750/430.9750 CC1
EA1ABW 43.24.77N 005.47.77WIN73CJ 11.347km 246°WSW19:00:58ZMMDVM MMDVM HS Hat 439.8250/439.8250 CC1(3EA1ABW-2)
EA1HJA 43.28.10N 005.30.45WIN73FL 13.063km 84°E19:03:54Z IN73FL WX3IN1+ 2.0 - V=13.2V,TX TEMP=36.9C(3EA1HJA-2)
LEMR 43.25.83N 005.49.60WIN73CK 13.083km 258°WSW19:00:03ZAerodromo de la Morgal (123.500MHz): LEAS 031800Z 09004KT CAVOK 18/16 Q1020 NOSIG=
LEGM 43.26.15N 005.49.84WIN73CK 13.273km 261°W19:00:03ZHelipuerto de La Morgal (123.500MHz): LEAS 031800Z 09004KT CAVOK 18/16 Q1020 NOSIG=
LEHU 43.22.63N 005.49.57WIN73CJ 15.427km 236°SW19:00:03ZHelipuerto del HUCA: LEAS 031800Z 09004KT CAVOK 18/16 Q1020 NOSIG=
EA1JW 43.31.35N 005.28.83WIN73GM 16.900km 64°ENE19:00:46ZMMDVM MMDVM HS Hat 436.5000/436.5000 CC1(3EA1JW-3)
EA1JBU 43.21.85N 005.51.13WIN73BI 17.978km 236°SW18:32:03ZEA1JBU(3EA1JBU-1)
33D00 43.21.63N 005.51.13WIN73BI 18.200km 235°SW19:01:42Z33-D-00 Protección Civil REMER / Delegación del Gobierno en Asturias

aprs.pl 5.0.011w DL3EL © 2006-2021 [5807005]